createdAt,value
2018-07-13T00:02:03.939Z,3.67
2018-07-13T00:04:31.587Z,3.58
2018-07-13T00:06:59.168Z,3.70
2018-07-13T00:09:26.785Z,3.60
2018-07-13T00:11:54.370Z,4.40
2018-07-13T00:14:23.276Z,4.40
2018-07-13T00:16:52.925Z,3.83
2018-07-13T00:19:21.040Z,3.72
2018-07-13T00:21:48.585Z,3.65
2018-07-13T00:24:16.157Z,4.17
2018-07-13T00:26:44.027Z,3.85
2018-07-13T00:29:11.904Z,3.80
2018-07-13T00:31:40.684Z,4.35
2018-07-13T00:34:08.272Z,4.40
2018-07-13T00:36:36.089Z,4.05
2018-07-13T00:39:07.199Z,3.70
2018-07-13T00:41:34.758Z,4.47
2018-07-13T00:44:02.358Z,3.92
2018-07-13T00:46:30.153Z,4.00
2018-07-13T00:48:57.731Z,4.00
2018-07-13T00:51:25.324Z,3.42
2018-07-13T00:53:52.916Z,3.62
2018-07-13T00:56:20.432Z,3.22
2018-07-13T00:58:48.216Z,4.15
2018-07-13T01:01:15.715Z,4.30
2018-07-13T01:03:43.555Z,4.57
2018-07-13T01:06:11.072Z,4.08
2018-07-13T01:08:38.561Z,4.17
2018-07-13T01:11:06.029Z,4.30
2018-07-13T01:13:33.646Z,3.72
2018-07-13T01:16:01.136Z,3.72
2018-07-13T01:18:28.640Z,3.90
2018-07-13T01:20:56.615Z,6.10
2018-07-13T01:23:24.108Z,5.15
2018-07-13T01:25:51.573Z,5.70
2018-07-13T01:28:19.120Z,5.10
2018-07-13T01:30:46.614Z,5.20
2018-07-13T01:33:14.097Z,4.62
2018-07-13T01:35:41.788Z,4.33
2018-07-13T01:38:09.247Z,4.65
2018-07-13T01:40:36.756Z,4.67
2018-07-13T01:43:04.399Z,4.50
2018-07-13T01:45:31.897Z,4.40
2018-07-13T01:47:59.456Z,4.80
2018-07-13T01:50:27.006Z,4.67
2018-07-13T01:52:54.548Z,4.45
2018-07-13T01:55:22.069Z,4.47
2018-07-13T01:57:49.762Z,4.20
2018-07-13T02:00:17.267Z,4.53
2018-07-13T02:02:44.978Z,4.92
2018-07-13T02:05:12.611Z,4.58
2018-07-13T02:07:40.183Z,3.92
2018-07-13T02:10:07.816Z,3.83
2018-07-13T02:12:35.320Z,3.58
2018-07-13T02:15:02.876Z,4.90
2018-07-13T02:17:30.384Z,4.55
2018-07-13T02:19:57.917Z,5.17
2018-07-13T02:22:25.398Z,4.58
2018-07-13T02:24:52.915Z,5.45
2018-07-13T02:27:20.425Z,4.67
2018-07-13T02:29:47.952Z,5.85
2018-07-13T02:32:15.480Z,4.70
2018-07-13T02:34:42.931Z,4.60
2018-07-13T02:37:10.448Z,4.90
2018-07-13T02:39:37.976Z,4.53
2018-07-13T02:42:05.444Z,4.97
2018-07-13T02:44:32.972Z,4.55
2018-07-13T02:47:00.751Z,4.22
2018-07-13T02:49:28.289Z,4.58
2018-07-13T02:51:56.006Z,5.60
2018-07-13T02:54:23.557Z,5.37
2018-07-13T02:56:51.112Z,5.92
2018-07-13T02:59:18.724Z,5.50
2018-07-13T03:01:46.273Z,5.60
2018-07-13T03:04:13.930Z,5.10
2018-07-13T03:06:41.382Z,4.45
2018-07-13T03:09:10.753Z,4.80
2018-07-13T03:11:38.548Z,4.60
2018-07-13T03:14:06.776Z,4.20
2018-07-13T03:16:34.533Z,3.70
2018-07-13T03:19:02.170Z,4.03
2018-07-13T03:21:29.672Z,3.60
2018-07-13T03:23:57.285Z,3.60
2018-07-13T03:26:24.997Z,4.40
2018-07-13T03:28:52.844Z,4.15
2018-07-13T03:31:20.371Z,4.20
2018-07-13T03:33:48.200Z,4.28
2018-07-13T03:36:15.716Z,4.67
2018-07-13T03:38:43.574Z,4.80
2018-07-13T03:41:11.372Z,4.75
2018-07-13T03:43:38.896Z,5.30
2018-07-13T03:46:06.665Z,4.97
2018-07-13T03:48:41.506Z,4.62
2018-07-13T03:51:09.255Z,4.57
2018-07-13T03:53:36.842Z,4.03
2018-07-13T03:56:04.792Z,4.50
2018-07-13T03:58:32.506Z,3.83
2018-07-13T04:01:00.071Z,4.03
2018-07-13T04:03:27.609Z,4.57
2018-07-13T04:05:55.133Z,4.30
2018-07-13T04:08:22.977Z,3.67
2018-07-13T04:10:50.493Z,3.80
2018-07-13T04:13:18.019Z,5.20
2018-07-13T04:15:45.800Z,6.45
2018-07-13T04:18:17.823Z,5.72
2018-07-13T04:20:45.637Z,5.55
2018-07-13T04:23:13.177Z,4.97
2018-07-13T04:25:40.696Z,5.10
2018-07-13T04:28:08.517Z,5.22
2018-07-13T04:30:36.084Z,5.47
2018-07-13T04:33:03.606Z,5.42
2018-07-13T04:35:31.144Z,4.90
2018-07-13T04:37:58.662Z,6.00
2018-07-13T04:40:26.145Z,6.45
2018-07-13T04:42:53.689Z,5.50
2018-07-13T04:45:21.120Z,4.80
2018-07-13T04:47:48.656Z,4.25
2018-07-13T04:50:16.295Z,3.55
2018-07-13T04:52:43.797Z,4.72
2018-07-13T04:55:11.324Z,5.25
2018-07-13T04:57:39.138Z,4.87
2018-07-13T05:00:06.663Z,5.25
2018-07-13T05:02:34.457Z,4.70
2018-07-13T05:05:02.030Z,6.00
2018-07-13T05:07:29.476Z,5.37
2018-07-13T05:09:57.220Z,5.53
2018-07-13T05:12:24.748Z,4.83
2018-07-13T05:14:52.385Z,5.53
2018-07-13T05:17:20.338Z,4.70
2018-07-13T05:19:47.765Z,4.35
2018-07-13T05:22:15.288Z,4.90
2018-07-13T05:24:42.832Z,4.57
2018-07-13T05:27:10.364Z,4.08
2018-07-13T05:29:37.853Z,4.17
2018-07-13T05:32:05.433Z,4.72
2018-07-13T05:34:33.345Z,3.80
2018-07-13T05:37:01.034Z,4.50
2018-07-13T05:39:28.581Z,4.78
2018-07-13T05:41:56.101Z,3.42
2018-07-13T05:44:23.654Z,4.00
2018-07-13T05:46:51.177Z,4.12
2018-07-13T05:49:18.733Z,3.17
2018-07-13T05:51:46.281Z,3.50
2018-07-13T05:54:14.261Z,3.30
2018-07-13T05:56:41.781Z,2.95
2018-07-13T05:59:09.265Z,2.72
2018-07-13T06:01:36.814Z,2.67
2018-07-13T06:04:04.485Z,3.33
2018-07-13T06:06:31.994Z,3.30
2018-07-13T06:08:59.506Z,4.42
2018-07-13T06:11:27.053Z,4.90
2018-07-13T06:13:54.542Z,4.60
2018-07-13T06:16:22.657Z,4.40
2018-07-13T06:18:50.431Z,3.77
2018-07-13T06:21:17.952Z,3.40
2018-07-13T06:23:45.652Z,3.27
2018-07-13T06:26:13.159Z,3.77
2018-07-13T06:28:40.634Z,3.42
2018-07-13T06:31:08.268Z,3.02
2018-07-13T06:33:35.762Z,3.40
2018-07-13T06:36:03.640Z,3.50
2018-07-13T06:38:31.200Z,3.65
2018-07-13T06:40:58.659Z,4.53
2018-07-13T06:43:26.237Z,4.42
2018-07-13T06:45:53.742Z,4.08
2018-07-13T06:48:21.472Z,3.33
2018-07-13T06:50:49.017Z,3.65
2018-07-13T06:53:16.728Z,4.92
2018-07-13T06:55:44.774Z,4.28
2018-07-13T06:58:23.864Z,4.90
2018-07-13T07:00:57.320Z,4.25
2018-07-13T07:03:25.567Z,3.80
2018-07-13T07:05:54.837Z,4.15
2018-07-13T07:08:22.365Z,4.80
2018-07-13T07:10:49.876Z,4.58
2018-07-13T07:13:23.411Z,4.00
2018-07-13T07:15:50.984Z,3.60
2018-07-13T07:18:18.517Z,3.05
2018-07-13T07:20:46.196Z,3.17
2018-07-13T07:23:13.901Z,3.30
2018-07-13T07:25:41.417Z,3.37
2018-07-13T07:28:09.173Z,3.12
2018-07-13T07:30:43.341Z,3.22
2018-07-13T07:33:10.840Z,3.35
2018-07-13T07:35:38.337Z,3.30
2018-07-13T07:38:05.817Z,3.37
2018-07-13T07:40:33.345Z,2.58
2018-07-13T07:43:00.792Z,2.62
2018-07-13T07:45:28.322Z,2.42
2018-07-13T07:47:55.864Z,2.08
2018-07-13T07:50:23.388Z,2.08
2018-07-13T07:52:51.153Z,1.82
2018-07-13T07:55:18.876Z,2.17
2018-07-13T07:57:46.403Z,3.00
2018-07-13T08:00:13.936Z,2.92
2018-07-13T08:02:41.526Z,3.22
2018-07-13T08:05:09.015Z,2.92
2018-07-13T08:07:36.616Z,3.15
2018-07-13T08:10:04.453Z,2.87
2018-07-13T08:12:31.953Z,3.55
2018-07-13T08:14:59.464Z,3.60
2018-07-13T08:17:27.313Z,3.80
2018-07-13T08:19:55.167Z,3.70
2018-07-13T08:22:40.879Z,4.73
2018-07-13T08:25:11.180Z,4.90
2018-07-13T08:27:43.041Z,3.85
2018-07-13T08:30:14.751Z,4.10
2018-07-13T08:32:42.309Z,3.47
2018-07-13T08:35:10.046Z,3.58
2018-07-13T08:37:37.551Z,3.98
2018-07-13T08:40:05.336Z,3.20
2018-07-13T08:42:32.865Z,4.12
2018-07-13T08:45:00.358Z,3.60
2018-07-13T08:47:27.936Z,3.20
2018-07-13T08:49:55.453Z,2.95
2018-07-13T08:52:22.997Z,2.70
2018-07-13T08:54:50.713Z,2.67
2018-07-13T08:57:18.223Z,3.10
2018-07-13T08:59:45.789Z,2.90
2018-07-13T09:02:13.361Z,2.98
2018-07-13T09:04:40.852Z,4.15
2018-07-13T09:07:08.284Z,3.00
2018-07-13T09:09:36.047Z,3.10
2018-07-13T09:12:03.653Z,3.20
2018-07-13T09:14:31.156Z,2.92
2018-07-13T09:16:58.875Z,2.27
2018-07-13T09:19:26.416Z,2.70
2018-07-13T09:21:53.843Z,2.00
2018-07-13T09:24:21.365Z,2.15
2018-07-13T09:26:49.183Z,1.92
2018-07-13T09:29:16.701Z,1.98
2018-07-13T09:31:44.265Z,1.80
2018-07-13T09:34:11.768Z,2.08
2018-07-13T09:36:39.275Z,2.40
2018-07-13T09:39:07.531Z,2.20
2018-07-13T09:41:35.067Z,2.20
2018-07-13T09:44:02.603Z,2.02
2018-07-13T09:46:30.253Z,2.40
2018-07-13T09:48:57.964Z,2.08
2018-07-13T09:51:25.461Z,2.02
2018-07-13T09:53:53.324Z,1.92
2018-07-13T09:56:20.796Z,2.00
2018-07-13T09:58:48.490Z,2.65
2018-07-13T10:01:20.669Z,2.10
2018-07-13T10:03:48.528Z,1.90
2018-07-13T10:06:16.081Z,2.62
2018-07-13T10:08:43.597Z,2.22
2018-07-13T10:11:11.111Z,2.75
2018-07-13T10:13:38.704Z,2.17
2018-07-13T10:16:06.261Z,2.17
2018-07-13T10:18:33.761Z,1.85
2018-07-13T10:21:02.051Z,1.75
2018-07-13T10:23:30.368Z,1.87
2018-07-13T10:26:04.241Z,2.45
2018-07-13T10:28:31.964Z,2.40
2018-07-13T10:30:59.536Z,3.15
2018-07-13T10:33:27.064Z,2.70
2018-07-13T10:35:54.609Z,2.80
2018-07-13T10:38:22.452Z,2.15
2018-07-13T10:40:49.929Z,2.22
2018-07-13T10:43:17.413Z,2.77
2018-07-13T10:45:45.010Z,2.67
2018-07-13T10:48:12.489Z,2.40
2018-07-13T10:50:39.969Z,2.40
2018-07-13T10:53:07.508Z,2.30
2018-07-13T10:55:35.157Z,2.70
2018-07-13T10:58:02.645Z,2.60
2018-07-13T11:00:30.242Z,2.60
2018-07-13T11:02:57.878Z,3.00
2018-07-13T11:05:25.366Z,2.10
2018-07-13T11:07:53.162Z,2.80
2018-07-13T11:10:20.648Z,2.40
2018-07-13T11:12:48.144Z,2.58
2018-07-13T11:15:15.776Z,2.37
2018-07-13T11:17:43.288Z,2.50
2018-07-13T11:20:10.782Z,1.80
2018-07-13T11:22:38.297Z,2.47
2018-07-13T11:25:05.800Z,2.15
2018-07-13T11:27:33.314Z,2.52
2018-07-13T11:30:00.848Z,2.45
2018-07-13T11:32:28.288Z,2.35
2018-07-13T11:34:55.840Z,2.35
2018-07-13T11:37:23.676Z,2.42
2018-07-13T11:39:51.076Z,2.37
2018-07-13T11:42:18.597Z,2.60
2018-07-13T11:44:46.091Z,2.35
2018-07-13T11:47:13.948Z,2.27
2018-07-13T11:49:41.469Z,1.90
2018-07-13T11:52:09.021Z,2.12
2018-07-13T11:54:36.528Z,2.45
2018-07-13T11:57:04.068Z,2.80
2018-07-13T11:59:31.614Z,2.90
2018-07-13T12:01:59.130Z,2.67
2018-07-13T12:04:26.681Z,2.58
2018-07-13T12:06:54.292Z,3.42
2018-07-13T12:09:21.813Z,3.08
2018-07-13T12:11:49.482Z,2.52
2018-07-13T12:14:17.003Z,2.85
2018-07-13T12:16:44.589Z,2.27
2018-07-13T12:19:12.219Z,2.70
2018-07-13T12:21:39.811Z,2.65
2018-07-13T12:24:07.299Z,2.40
2018-07-13T12:26:34.854Z,2.47
2018-07-13T12:29:02.628Z,2.10
2018-07-13T12:31:31.041Z,2.10
2018-07-13T12:33:58.526Z,2.10
2018-07-13T12:36:26.325Z,2.02
2018-07-13T12:38:53.825Z,2.05
2018-07-13T12:41:21.318Z,1.98
2018-07-13T12:43:49.224Z,1.82
2018-07-13T12:46:23.463Z,1.90
2018-07-13T12:48:50.956Z,2.37
2018-07-13T12:51:18.442Z,2.00
2018-07-13T12:53:45.971Z,2.10
2018-07-13T12:56:13.517Z,2.20
2018-07-13T12:58:41.000Z,1.87
2018-07-13T13:01:08.476Z,1.80
2018-07-13T13:03:36.134Z,2.45
2018-07-13T13:06:03.860Z,1.80
2018-07-13T13:08:31.823Z,1.80
2018-07-13T13:10:59.631Z,1.40
2018-07-13T13:13:27.151Z,2.10
2018-07-13T13:15:54.698Z,1.80
2018-07-13T13:19:25.663Z,1.80
2018-07-13T13:21:53.236Z,1.80
2018-07-13T13:24:20.918Z,1.57
2018-07-13T13:26:48.431Z,2.58
2018-07-13T13:29:15.929Z,1.90
2018-07-13T13:31:43.610Z,2.15
2018-07-13T13:34:11.091Z,1.90
2018-07-13T13:36:38.614Z,2.65
2018-07-13T13:39:06.221Z,2.20
2018-07-13T13:41:33.750Z,1.80
2018-07-13T13:44:01.509Z,2.00
2018-07-13T13:46:29.046Z,2.20
2018-07-13T13:48:56.827Z,2.70
2018-07-13T13:51:24.508Z,2.40
2018-07-13T13:53:52.056Z,2.72
2018-07-13T13:56:19.700Z,2.42
2018-07-13T13:58:47.240Z,3.15
2018-07-13T14:01:14.798Z,3.20
2018-07-13T14:03:42.693Z,3.52
2018-07-13T14:06:10.312Z,3.50
2018-07-13T14:08:38.724Z,2.70
2018-07-13T14:11:06.220Z,2.30
2018-07-13T14:13:33.737Z,2.90
2018-07-13T14:16:01.220Z,2.98
2018-07-13T14:18:29.041Z,3.00
2018-07-13T14:20:56.573Z,3.30
2018-07-13T14:23:24.061Z,3.10
2018-07-13T14:25:51.694Z,3.05
2018-07-13T14:28:19.440Z,3.05
2018-07-13T14:30:46.961Z,3.25
2018-07-13T14:33:14.704Z,1.95
2018-07-13T14:35:42.214Z,2.65
2018-07-13T14:38:09.732Z,2.67
2018-07-13T14:40:37.269Z,3.02
2018-07-13T14:43:04.833Z,2.70
2018-07-13T14:45:32.354Z,2.80
2018-07-13T14:48:00.042Z,2.60
2018-07-13T14:50:27.575Z,2.27
2018-07-13T14:52:55.091Z,2.85
2018-07-13T14:55:22.790Z,2.70
2018-07-13T14:57:50.312Z,2.27
2018-07-13T15:00:17.930Z,2.70
2018-07-13T15:02:45.493Z,3.45
2018-07-13T15:05:13.064Z,2.92
2018-07-13T15:07:40.560Z,2.52
2018-07-13T15:10:08.142Z,2.98
2018-07-13T15:12:35.604Z,3.17
2018-07-13T15:15:03.205Z,2.70
2018-07-13T15:17:30.771Z,2.72
2018-07-13T15:19:58.216Z,2.30
2018-07-13T15:22:25.744Z,2.40
2018-07-13T15:24:53.433Z,2.40
2018-07-13T15:27:20.949Z,2.02
2018-07-13T15:29:48.467Z,3.00
2018-07-13T15:32:16.066Z,2.60
2018-07-13T15:34:43.576Z,2.67
2018-07-13T15:37:11.014Z,2.62
2018-07-13T15:39:38.753Z,2.20
2018-07-13T15:42:06.291Z,2.60
2018-07-13T15:44:34.401Z,3.55
2018-07-13T15:47:02.176Z,3.65
2018-07-13T15:49:29.760Z,3.60
2018-07-13T15:51:57.437Z,3.62
2018-07-13T15:54:24.964Z,3.20
2018-07-13T15:56:52.455Z,3.33
2018-07-13T15:59:19.996Z,2.95
2018-07-13T16:01:47.448Z,3.40
2018-07-13T16:04:15.029Z,3.30
2018-07-13T16:06:42.516Z,3.83
2018-07-13T16:09:10.093Z,3.77
2018-07-13T16:11:37.640Z,4.35
2018-07-13T16:14:05.225Z,4.15
2018-07-13T16:16:32.746Z,3.58
2018-07-13T16:19:00.269Z,3.15
2018-07-13T16:21:27.755Z,3.55
2018-07-13T16:23:55.297Z,3.60
2018-07-13T16:26:22.762Z,3.85
2018-07-13T16:28:50.457Z,3.33
2018-07-13T16:31:17.956Z,4.15
2018-07-13T16:33:45.465Z,3.65
2018-07-13T16:36:12.972Z,3.17
2018-07-13T16:38:40.482Z,2.92
2018-07-13T16:41:08.160Z,2.50
2018-07-13T16:43:35.665Z,5.55
2018-07-13T16:46:03.236Z,5.55
2018-07-13T16:48:31.166Z,4.53
2018-07-13T16:50:58.667Z,4.60
2018-07-13T16:53:26.181Z,4.30
2018-07-13T16:55:53.721Z,4.33
2018-07-13T16:58:21.199Z,4.30
2018-07-13T17:00:48.737Z,3.90
2018-07-13T17:03:16.547Z,3.47
2018-07-13T17:05:43.954Z,3.30
2018-07-13T17:08:11.464Z,4.12
2018-07-13T17:10:39.028Z,3.98
2018-07-13T17:13:06.512Z,3.10
2018-07-13T17:15:34.138Z,2.92
2018-07-13T17:18:01.688Z,3.05
2018-07-13T17:20:29.348Z,2.47
2018-07-13T17:22:56.740Z,3.00
2018-07-13T17:25:24.511Z,2.60
2018-07-13T17:27:52.003Z,3.25
2018-07-13T17:30:19.441Z,5.40
2018-07-13T17:32:46.988Z,5.05
2018-07-13T17:35:14.913Z,5.00
2018-07-13T17:37:42.357Z,4.58
2018-07-13T17:40:10.076Z,4.80
2018-07-13T17:42:37.675Z,4.72
2018-07-13T17:45:05.700Z,4.17
2018-07-13T17:47:33.368Z,4.42
2018-07-13T17:50:00.874Z,4.85
2018-07-13T17:52:28.526Z,4.97
2018-07-13T17:54:56.077Z,4.92
2018-07-13T17:57:23.866Z,4.62
2018-07-13T17:59:51.414Z,4.87
2018-07-13T18:02:19.130Z,4.85
2018-07-13T18:04:46.685Z,5.00
2018-07-13T18:07:14.236Z,4.33
2018-07-13T18:09:41.945Z,5.05
2018-07-13T18:12:10.872Z,4.40
2018-07-13T18:14:38.485Z,3.40
2018-07-13T18:17:06.221Z,4.53
2018-07-13T18:19:33.744Z,4.05
2018-07-13T18:22:01.261Z,4.08
2018-07-13T18:24:28.889Z,3.55
2018-07-13T18:26:56.512Z,3.12
2018-07-13T18:29:24.246Z,3.20
2018-07-13T18:31:51.769Z,3.50
2018-07-13T18:34:19.326Z,3.90
2018-07-13T18:36:46.820Z,4.35
2018-07-13T18:39:14.377Z,3.13
2018-07-13T18:41:41.819Z,3.10
2018-07-13T18:46:43.928Z,3.30
2018-07-13T18:49:11.438Z,3.30
2018-07-13T18:51:38.977Z,3.47
2018-07-13T18:54:06.509Z,3.15
2018-07-13T18:56:34.000Z,3.30
2018-07-13T18:59:01.685Z,3.05
2018-07-13T19:01:29.152Z,3.10
2018-07-13T19:03:56.683Z,4.37
2018-07-13T19:06:24.224Z,4.00
2018-07-13T19:08:51.706Z,4.65
2018-07-13T19:12:22.373Z,4.20
2018-07-13T19:14:50.140Z,4.50
2018-07-13T19:17:17.577Z,3.80
2018-07-13T19:19:45.588Z,4.10
2018-07-13T19:22:13.105Z,3.58
2018-07-13T19:24:40.632Z,4.08
2018-07-13T19:27:08.416Z,3.80
2018-07-13T19:29:35.895Z,3.90
2018-07-13T19:32:03.412Z,3.80
2018-07-13T19:34:30.997Z,4.05
2018-07-13T19:37:05.292Z,4.37
2018-07-13T19:39:32.812Z,4.10
2018-07-13T19:42:00.360Z,3.87
2018-07-13T19:44:27.881Z,3.90
2018-07-13T19:46:55.644Z,4.00
2018-07-13T19:49:23.177Z,4.25
2018-07-13T19:51:50.665Z,3.77
2018-07-13T19:54:19.539Z,3.83
2018-07-13T19:56:47.105Z,4.10
2018-07-13T19:59:14.593Z,4.30
2018-07-13T20:01:42.136Z,3.90
2018-07-13T20:04:09.713Z,3.55
2018-07-13T20:06:37.221Z,3.37
2018-07-13T20:09:05.744Z,3.27
2018-07-13T20:11:33.197Z,3.80
2018-07-13T20:14:00.797Z,4.37
2018-07-13T20:16:28.324Z,4.60
2018-07-13T20:18:55.853Z,3.98
2018-07-13T20:21:23.408Z,4.17
2018-07-13T20:23:51.279Z,4.28
2018-07-13T20:26:19.205Z,3.58
2018-07-13T20:28:47.020Z,3.70
2018-07-13T20:31:15.330Z,3.30
2018-07-13T20:33:42.917Z,3.45
2018-07-13T20:36:10.601Z,3.40
2018-07-13T20:38:38.229Z,3.23
2018-07-13T20:41:05.798Z,3.50
2018-07-13T20:43:33.675Z,3.27
2018-07-13T20:46:01.198Z,3.05
2018-07-13T20:48:28.983Z,3.67
2018-07-13T20:50:56.570Z,4.40
2018-07-13T20:53:24.087Z,4.22
2018-07-13T20:55:51.601Z,3.35
2018-07-13T20:58:19.098Z,3.60
2018-07-13T21:00:46.624Z,2.95
2018-07-13T21:03:14.148Z,3.65
2018-07-13T21:05:41.829Z,3.45
2018-07-13T21:08:09.328Z,3.50
2018-07-13T21:10:37.097Z,5.17
2018-07-13T21:13:04.664Z,4.78
2018-07-13T21:15:32.236Z,5.05
2018-07-13T21:18:00.148Z,5.20
2018-07-13T21:20:27.750Z,5.17
2018-07-13T21:22:55.260Z,4.43
2018-07-13T21:25:22.784Z,4.80
2018-07-13T21:27:50.276Z,4.42
2018-07-13T21:30:17.903Z,4.72
2018-07-13T21:32:45.800Z,4.80
2018-07-13T21:35:13.311Z,4.35
2018-07-13T21:37:41.311Z,4.10
2018-07-13T21:40:08.812Z,3.75
2018-07-13T21:42:36.704Z,3.72
2018-07-13T21:45:04.425Z,3.70
2018-07-13T21:47:32.008Z,3.85
2018-07-13T21:49:59.569Z,4.10
2018-07-13T21:52:27.220Z,4.30
2018-07-13T21:54:54.748Z,4.12
2018-07-13T21:57:22.420Z,3.90
2018-07-13T21:59:49.944Z,4.17
2018-07-13T22:02:17.484Z,5.10
2018-07-13T22:04:45.052Z,3.87
2018-07-13T22:07:12.822Z,3.65
2018-07-13T22:09:40.321Z,3.65
2018-07-13T22:12:07.868Z,3.70
2018-07-13T22:14:35.457Z,3.70
2018-07-13T22:17:03.018Z,4.33
2018-07-13T22:19:30.498Z,4.58
2018-07-13T22:21:58.206Z,4.37
2018-07-13T22:24:25.780Z,4.17
2018-07-13T22:26:53.284Z,4.72
2018-07-13T22:29:20.820Z,4.30
2018-07-13T22:31:48.445Z,4.42
2018-07-13T22:34:15.973Z,4.80
2018-07-13T22:36:43.805Z,5.37
2018-07-13T22:39:11.268Z,5.58
2018-07-13T22:41:38.762Z,5.83
2018-07-13T22:44:06.656Z,7.33
2018-07-13T22:46:34.464Z,7.58
2018-07-13T22:49:01.949Z,6.92
2018-07-13T22:51:29.493Z,6.62
2018-07-13T22:53:57.023Z,5.78
2018-07-13T22:56:24.624Z,6.42
2018-07-13T22:58:52.466Z,6.17
2018-07-13T23:01:19.987Z,6.50
2018-07-13T23:03:47.885Z,5.28
2018-07-13T23:06:15.355Z,5.40
2018-07-13T23:08:42.873Z,5.35
2018-07-13T23:11:10.413Z,4.65
2018-07-13T23:13:37.900Z,4.50
2018-07-13T23:16:05.469Z,4.75
2018-07-13T23:18:32.968Z,4.83
2018-07-13T23:21:00.566Z,4.97
2018-07-13T23:23:28.083Z,5.10
2018-07-13T23:25:55.793Z,5.72
2018-07-13T23:28:23.276Z,4.85
2018-07-13T23:30:50.837Z,4.62
2018-07-13T23:33:18.368Z,4.30
2018-07-13T23:35:45.864Z,4.60
2018-07-13T23:38:13.445Z,5.60
2018-07-13T23:40:40.964Z,5.62
2018-07-13T23:43:08.522Z,5.50
2018-07-13T23:45:36.078Z,5.03
2018-07-13T23:48:03.666Z,5.05
2018-07-13T23:50:31.188Z,4.62
2018-07-13T23:52:58.765Z,4.50
2018-07-13T23:55:26.308Z,5.20
2018-07-13T23:57:53.909Z,5.58
